• Join FlightAware (Why Join?)
  • Login
  • US Flag 
07:18PM EDT


 

Airport Tracker/Info


-or-


 

Live Flight TrackerFlight Track Log ✈ JZA7798 ✈ 18-Aug-2013 ✈ CYAM - CYYZ

Flight Track Log - Related Links

Times and Time Zones

All times are in EDT time to prevent confusion due to time zone crossing. See the JZA7798 flight status page for this flight to view local times or setup timezone preferences in your user account.

Time Position Orientation Groundspeed Altitude Reporting Facility
EDT Latitude Longitude Course Direction KTS MPH feet Rate Location/Type
08:42PM 46.4833 -84.5000 180° South 10 12 600  Level Toronto Center
08:43PM 46.4667 -84.5000 180° South 110 127 1,200 1,080 Climbing Toronto Center
08:44PM 46.4333 -84.5500 226° Southwest 130 150 2,800 1,260 Climbing Toronto Center
08:45PM 46.4000 -84.5333 161° South 160 184 3,800 1,140 Climbing Toronto Center
08:46PM 46.3667 -84.4833 134° Southeast 180 207 5,100 1,200 Climbing Toronto Center
08:47PM 46.3500 -84.4333 116° Southeast 190 219 6,200 1,080 Climbing Toronto Center
08:48PM 46.3167 -84.3667 126° Southeast 190 219 7,300 1,080 Climbing Toronto Center
08:49PM 46.2833 -84.2833 120° Southeast 200 230 8,400 1,020 Climbing Toronto Center
08:50PM 46.2500 -84.2333 134° Southeast 200 230 9,400 1,200 Climbing Toronto Center
08:51PM 46.2333 -84.1667 110° East 190 219 10,800 1,140 Climbing Toronto Center
08:52PM 46.2000 -84.1167 134° Southeast 190 219 11,700 1,020 Climbing Toronto Center
08:53PM 46.1667 -84.0333 120° Southeast 200 230 12,900 1,140 Climbing Toronto Center
08:54PM 46.1333 -83.9667 126° Southeast 200 230 14,000 1,020 Climbing Toronto Center
08:55PM 46.1000 -83.9167 134° Southeast 200 230 15,000 840 Climbing Toronto Center
08:56PM 46.0667 -83.8333 120° Southeast 200 230 15,700 840 Climbing Toronto Center
08:57PM 46.0500 -83.7667 110° East 210 242 16,700 900 Climbing Toronto Center
08:58PM 46.0167 -83.7167 134° Southeast 200 230 17,500 720 Climbing Toronto Center
08:59PM 45.9833 -83.6333 120° Southeast 210 242 18,200 720 Climbing Toronto Center
09:00PM 45.9500 -83.5667 126° Southeast 210 242 19,000 780 Climbing Toronto Center
09:01PM 45.9167 -83.4833 120° Southeast 210 242 19,800 720 Climbing Toronto Center
09:02PM 45.8833 -83.4167 126° Southeast 210 242 20,500 660 Climbing Toronto Center
09:03PM 45.8500 -83.3667 134° Southeast 210 242 21,200 600 Climbing Toronto Center
09:04PM 45.8000 -83.3000 137° Southeast 210 242 21,800 600 Climbing Toronto Center
09:05PM 45.7833 -83.2167 106° East 210 242 22,400 540 Climbing Toronto Center
09:06PM 45.7500 -83.1500 126° Southeast 220 253 22,900 300 Climbing Toronto Center
09:07PM 45.7167 -83.0667 120° Southeast 220 253 23,000  Climbing Toronto Center
09:08PM 45.6667 -82.9667 126° Southeast 250 288 23,000  Level Toronto Center
09:09PM 45.6333 -82.9000 126° Southeast 260 299 23,000  Level Toronto Center
09:10PM 45.5833 -82.8333 137° Southeast 260 299 23,000  Level Toronto Center
09:11PM 45.5500 -82.7333 115° Southeast 260 299 23,000  Level Toronto Center
09:12PM 45.5167 -82.6500 120° Southeast 260 299 23,000  Level Toronto Center
09:13PM 45.4667 -82.5500 125° Southeast 260 299 23,000  Level Toronto Center
09:14PM 45.4333 -82.4833 125° Southeast 260 299 23,000  Level Toronto Center
09:15PM 45.3833 -82.3833 125° Southeast 260 299 23,000  Level Toronto Center
09:16PM 45.3500 -82.3167 125° Southeast 260 299 23,000  Level Toronto Center
09:17PM 45.3000 -82.2333 130° Southeast 260 299 23,000  Level Toronto Center
09:18PM 45.2500 -82.1500 130° Southeast 260 299 23,000  Level Toronto Center
09:19PM 45.2167 -82.0667 120° Southeast 260 299 23,000  Level Toronto Center
09:20PM 45.1667 -81.9667 125° Southeast 250 288 23,000  Level Toronto Center
09:21PM 45.1500 -81.9000 109° East 240 276 23,000  Level Toronto Center
09:22PM 45.1000 -81.8000 125° Southeast 260 299 23,000  Level Toronto Center
09:23PM 45.0667 -81.7333 125° Southeast 260 299 23,000  Level Toronto Center
09:24PM 45.0167 -81.6667 137° Southeast 260 299 23,000  Level Toronto Center
09:25PM 44.9667 -81.5667 125° Southeast 260 299 23,000  Level Toronto Center
09:26PM 44.9333 -81.5000 125° Southeast 260 299 23,000  Level Toronto Center
09:27PM 44.8833 -81.4000 125° Southeast 260 299 23,000  Level Toronto Center
09:28PM 44.8500 -81.3333 125° Southeast 260 299 23,000  Level Toronto Center
09:29PM 44.8000 -81.2333 125° Southeast 250 288 23,000  Level Toronto Center
09:30PM 44.7667 -81.1667 125° Southeast 260 299 23,000  Level Toronto Center
09:31PM 44.7167 -81.0833 130° Southeast 260 299 23,000  Level Toronto Center
09:32PM 44.6667 -81.0000 130° Southeast 260 299 23,000  Level Toronto Center
09:33PM 44.6167 -80.9167 130° Southeast 260 299 23,000 -120 Level Toronto Center
09:34PM 44.5667 -80.8500 136° Southeast 260 299 22,800 -720 Descending Toronto Center
09:35PM 44.5333 -80.7833 125° Southeast 280 322 21,600 -1,260 Descending Toronto Center
09:36PM 44.4833 -80.6833 125° Southeast 300 345 20,300 -1,200 Descending Toronto Center
09:37PM 44.4333 -80.5833 125° Southeast 300 345 19,200 -1,200 Descending Toronto Center
09:38PM 44.3667 -80.5000 138° Southeast 300 345 18,000 -1,260 Descending Toronto Center
09:39PM 44.3167 -80.4000 125° Southeast 310 357 16,700 -1,440 Descending Toronto Center
09:40PM 44.2667 -80.3333 136° Southeast 310 357 15,200 -1,620 Descending Toronto Center
09:41PM 44.2000 -80.2333 133° Southeast 310 357 13,500 -1,680 Descending Toronto Center
09:42PM 44.1500 -80.1500 130° Southeast 300 345 11,900 -1,620 Descending Toronto Center
09:43PM 44.0833 -80.0667 138° Southeast 290 334 10,300 -1,500 Descending Toronto Center
09:44PM 44.0167 -80.0000 144° Southeast 290 334 9,000 -960 Descending Toronto Center
09:45PM 43.9667 -79.9500 144° Southeast 260 299 8,400 -540 Descending Toronto Center
09:46PM 43.9000 -79.8833 144° Southeast 260 299 8,000 -240 Descending Toronto Center
09:47PM 43.8500 -79.8167 136° Southeast 240 276 8,000  Level Toronto Center
09:48PM 43.8000 -79.7667 144° Southeast 230 265 8,000 -660 Level Toronto Center
09:49PM 43.8000 -79.7000 90° East 230 265 6,700 -1,620 Descending Toronto Center
09:50PM 43.8167 -79.6167 74° East 230 265 4,800 -1,860 Descending Toronto Center
09:51PM 43.8500 -79.5333 61° Northeast 220 253 3,000 -900 Descending Toronto Center
09:52PM 43.8333 -79.4667 109° East 200 230 3,000  Level Toronto Center
09:53PM 43.7833 -79.5000 206° Southwest 170 196 3,000 -360 Level Toronto Center
09:54PM 43.7500 -79.5167 200° South 160 184 2,300 -660 Descending Toronto Center
09:55PM 43.7167 -79.5667 227° Southwest 140 161 1,700 -600 Descending Toronto Center
09:56PM 43.7000 -79.5833 216° Southwest 100 115 1,100 -600 Descending Toronto Center
09:57PM 43.6833 -79.6167 235° Southwest 100 115 600 -180 Descending Toronto Center
09:59PM 43.6833 -79.6167 36° Northeast 20 23 600  Level Toronto Center
10:00PM 43.6667 -79.5833 125° Southeast 40 46 600  Level Toronto Center
10:02PM 43.6667 -79.6167 270° West 10 12 600  Level Toronto Center